Terminal Aerodrome Forecast
Issued by NWS North Platte, NE

Home | Current Version | Previous Version | Text Only | Print | Product List | Glossary Off
Versions: 1 2 3 4 5 6 7 8 9 10 11 12 13

000
FTUS43 KLBF 182328
TAFVTN
TAF
KVTN 182328Z 1900/1924 VRB06KT P6SM SKC
     FM191000 20007KT P6SM SKC WS020/21040KT
     FM191400 20013KT P6SM SKC
     FM192200 17013KT P6SM FEW250=

USA.gov is the U.S. government's official web portal to all federal, state and local government web resources and services.